Terminal Aerodrome Forecast
Issued by NWS

Home | Current Version | Previous Version | Text Only | Print | Product List | Glossary On
Versions: 1 2 3 4 5 6 7 8 9 10 11 12 13 14 15 16 17
699
FTUS43 KEAX 080520
TAFMKC
TAF
KMKC 080520Z 0806/0906 31015G25KT P6SM VCSH OVC035
      TEMPO 0809/0813 5SM -SHSN OVC025
     FM081800 32020G30KT P6SM OVC040
     FM090100 33015G25KT P6SM SCT045=

USA.gov is the U.S. government's official web portal to all federal, state and local government web resources and services.